sensor_id;sensor_type;location;lat;lon;timestamp;temperature;humidity
68128;SHT30;54931;52.098;21.006;2023-07-24T00:00:22;20.03;66.59
68128;SHT30;54931;52.098;21.006;2023-07-24T00:03:12;20.01;66.52
68128;SHT30;54931;52.098;21.006;2023-07-24T00:05:40;19.99;66.23
68128;SHT30;54931;52.098;21.006;2023-07-24T00:08:07;19.99;65.90
68128;SHT30;54931;52.098;21.006;2023-07-24T00:10:34;20.00;65.91
68128;SHT30;54931;52.098;21.006;2023-07-24T00:13:03;20.02;65.95
68128;SHT30;54931;52.098;21.006;2023-07-24T00:15:30;20.02;65.98
68128;SHT30;54931;52.098;21.006;2023-07-24T00:17:57;20.05;65.86
68128;SHT30;54931;52.098;21.006;2023-07-24T00:20:25;20.06;65.51
68128;SHT30;54931;52.098;21.006;2023-07-24T00:22:52;20.05;65.25
68128;SHT30;54931;52.098;21.006;2023-07-24T00:25:20;20.06;65.23
68128;SHT30;54931;52.098;21.006;2023-07-24T00:27:47;20.05;65.51
68128;SHT30;54931;52.098;21.006;2023-07-24T00:30:14;20.00;65.47
68128;SHT30;54931;52.098;21.006;2023-07-24T00:32:42;19.99;65.35
68128;SHT30;54931;52.098;21.006;2023-07-24T00:35:09;19.97;65.16
68128;SHT30;54931;52.098;21.006;2023-07-24T00:37:37;19.94;65.24
68128;SHT30;54931;52.098;21.006;2023-07-24T00:40:05;19.94;65.17
68128;SHT30;54931;52.098;21.006;2023-07-24T00:42:33;19.92;65.02
68128;SHT30;54931;52.098;21.006;2023-07-24T00:45:01;19.90;65.06
68128;SHT30;54931;52.098;21.006;2023-07-24T00:47:29;19.87;65.06
68128;SHT30;54931;52.098;21.006;2023-07-24T00:49:56;19.84;65.08
68128;SHT30;54931;52.098;21.006;2023-07-24T00:52:24;19.82;64.98
68128;SHT30;54931;52.098;21.006;2023-07-24T00:54:53;19.82;64.86
68128;SHT30;54931;52.098;21.006;2023-07-24T00:57:21;19.80;64.66
68128;SHT30;54931;52.098;21.006;2023-07-24T00:59:49;19.81;64.58
68128;SHT30;54931;52.098;21.006;2023-07-24T01:02:17;19.81;64.50
68128;SHT30;54931;52.098;21.006;2023-07-24T01:04:44;19.82;64.26
68128;SHT30;54931;52.098;21.006;2023-07-24T01:07:12;19.84;64.19
68128;SHT30;54931;52.098;21.006;2023-07-24T01:09:39;19.88;64.04
68128;SHT30;54931;52.098;21.006;2023-07-24T01:12:19;19.90;63.93
68128;SHT30;54931;52.098;21.006;2023-07-24T01:15:09;19.93;63.86
68128;SHT30;54931;52.098;21.006;2023-07-24T01:17:48;19.95;63.78
68128;SHT30;54931;52.098;21.006;2023-07-24T01:20:53;19.96;63.77
68128;SHT30;54931;52.098;21.006;2023-07-24T01:26:30;19.99;63.12
68128;SHT30;54931;52.098;21.006;2023-07-24T01:28:58;19.99;62.85
68128;SHT30;54931;52.098;21.006;2023-07-24T01:31:26;20.01;62.71
68128;SHT30;54931;52.098;21.006;2023-07-24T01:33:54;20.03;62.64
68128;SHT30;54931;52.098;21.006;2023-07-24T01:36:21;20.04;62.58
68128;SHT30;54931;52.098;21.006;2023-07-24T01:38:50;20.05;62.31
68128;SHT30;54931;52.098;21.006;2023-07-24T01:41:18;20.07;61.99
68128;SHT30;54931;52.098;21.006;2023-07-24T01:43:46;20.09;61.65
68128;SHT30;54931;52.098;21.006;2023-07-24T01:46:14;20.14;61.38
68128;SHT30;54931;52.098;21.006;2023-07-24T01:48:41;20.17;61.11
68128;SHT30;54931;52.098;21.006;2023-07-24T01:51:09;20.20;60.95
68128;SHT30;54931;52.098;21.006;2023-07-24T01:53:36;20.22;60.67
68128;SHT30;54931;52.098;21.006;2023-07-24T01:56:03;20.23;60.30
68128;SHT30;54931;52.098;21.006;2023-07-24T01:58:31;20.27;60.03
68128;SHT30;54931;52.098;21.006;2023-07-24T02:00:58;20.30;59.78
68128;SHT30;54931;52.098;21.006;2023-07-24T02:03:26;20.32;59.56
68128;SHT30;54931;52.098;21.006;2023-07-24T02:05:53;20.35;59.43
68128;SHT30;54931;52.098;21.006;2023-07-24T02:08:20;20.37;59.25
68128;SHT30;54931;52.098;21.006;2023-07-24T02:10:48;20.39;59.12
68128;SHT30;54931;52.098;21.006;2023-07-24T02:13:17;20.40;58.93
68128;SHT30;54931;52.098;21.006;2023-07-24T02:15:45;20.40;58.82
68128;SHT30;54931;52.098;21.006;2023-07-24T02:18:12;20.41;58.64
68128;SHT30;54931;52.098;21.006;2023-07-24T02:20:40;20.40;58.47
68128;SHT30;54931;52.098;21.006;2023-07-24T02:23:08;20.39;58.29
68128;SHT30;54931;52.098;21.006;2023-07-24T02:25:37;20.39;58.14
68128;SHT30;54931;52.098;21.006;2023-07-24T02:28:04;20.38;58.01
68128;SHT30;54931;52.098;21.006;2023-07-24T02:30:31;20.36;57.98
68128;SHT30;54931;52.098;21.006;2023-07-24T02:32:59;20.32;57.80
68128;SHT30;54931;52.098;21.006;2023-07-24T02:35:27;20.29;57.76
68128;SHT30;54931;52.098;21.006;2023-07-24T02:37:54;20.25;57.76
68128;SHT30;54931;52.098;21.006;2023-07-24T02:40:22;20.19;57.73
68128;SHT30;54931;52.098;21.006;2023-07-24T02:42:49;20.14;57.82
68128;SHT30;54931;52.098;21.006;2023-07-24T02:45:17;20.08;57.81
68128;SHT30;54931;52.098;21.006;2023-07-24T02:47:44;20.04;57.76
68128;SHT30;54931;52.098;21.006;2023-07-24T02:50:12;20.01;57.72
68128;SHT30;54931;52.098;21.006;2023-07-24T02:52:39;19.97;57.61
68128;SHT30;54931;52.098;21.006;2023-07-24T02:55:07;19.94;57.57
68128;SHT30;54931;52.098;21.006;2023-07-24T02:57:35;19.89;57.56
68128;SHT30;54931;52.098;21.006;2023-07-24T03:00:02;19.86;57.56
68128;SHT30;54931;52.098;21.006;2023-07-24T03:02:31;19.83;57.46
68128;SHT30;54931;52.098;21.006;2023-07-24T03:04:58;19.82;57.53
68128;SHT30;54931;52.098;21.006;2023-07-24T03:07:25;19.82;57.69
68128;SHT30;54931;52.098;21.006;2023-07-24T03:09:53;19.83;57.61
68128;SHT30;54931;52.098;21.006;2023-07-24T03:12:20;19.84;57.51
68128;SHT30;54931;52.098;21.006;2023-07-24T03:14:48;19.86;57.40
68128;SHT30;54931;52.098;21.006;2023-07-24T03:17:15;19.89;57.39
68128;SHT30;54931;52.098;21.006;2023-07-24T03:19:43;19.89;57.43
68128;SHT30;54931;52.098;21.006;2023-07-24T03:22:10;19.92;57.34
68128;SHT30;54931;52.098;21.006;2023-07-24T03:24:38;19.94;57.54
68128;SHT30;54931;52.098;21.006;2023-07-24T03:27:06;19.93;57.80
68128;SHT30;54931;52.098;21.006;2023-07-24T03:29:33;19.93;57.92
68128;SHT30;54931;52.098;21.006;2023-07-24T03:32:01;19.91;58.10
68128;SHT30;54931;52.098;21.006;2023-07-24T03:34:28;19.90;58.25
68128;SHT30;54931;52.098;21.006;2023-07-24T03:36:56;19.91;58.28
68128;SHT30;54931;52.098;21.006;2023-07-24T03:39:23;19.91;58.32
68128;SHT30;54931;52.098;21.006;2023-07-24T03:41:51;19.92;58.30
68128;SHT30;54931;52.098;21.006;2023-07-24T03:44:18;19.92;58.26
68128;SHT30;54931;52.098;21.006;2023-07-24T03:46:46;19.97;58.17
68128;SHT30;54931;52.098;21.006;2023-07-24T03:49:14;20.01;58.05
68128;SHT30;54931;52.098;21.006;2023-07-24T03:51:41;20.05;58.04
68128;SHT30;54931;52.098;21.006;2023-07-24T03:54:09;20.11;57.91
68128;SHT30;54931;52.098;21.006;2023-07-24T03:56:37;20.18;57.92
68128;SHT30;54931;52.098;21.006;2023-07-24T03:59:05;20.24;57.83
68128;SHT30;54931;52.098;21.006;2023-07-24T04:01:33;20.31;58.03
68128;SHT30;54931;52.098;21.006;2023-07-24T04:04:01;20.35;57.80
68128;SHT30;54931;52.098;21.006;2023-07-24T04:06:28;20.39;57.67
68128;SHT30;54931;52.098;21.006;2023-07-24T04:08:56;20.42;57.50
68128;SHT30;54931;52.098;21.006;2023-07-24T04:11:23;20.43;57.40
68128;SHT30;54931;52.098;21.006;2023-07-24T04:13:51;20.45;57.32
68128;SHT30;54931;52.098;21.006;2023-07-24T04:16:18;20.45;57.47
68128;SHT30;54931;52.098;21.006;2023-07-24T04:18:46;20.46;57.51
68128;SHT30;54931;52.098;21.006;2023-07-24T04:21:13;20.49;57.50
68128;SHT30;54931;52.098;21.006;2023-07-24T04:23:40;20.54;57.49
68128;SHT30;54931;52.098;21.006;2023-07-24T04:26:08;20.59;57.48
68128;SHT30;54931;52.098;21.006;2023-07-24T04:28:36;20.68;57.38
68128;SHT30;54931;52.098;21.006;2023-07-24T04:31:03;20.77;57.54
68128;SHT30;54931;52.098;21.006;2023-07-24T04:33:30;20.85;57.40
68128;SHT30;54931;52.098;21.006;2023-07-24T04:35:58;20.92;57.12
68128;SHT30;54931;52.098;21.006;2023-07-24T04:38:26;20.99;57.13
68128;SHT30;54931;52.098;21.006;2023-07-24T04:40:53;21.05;57.17
68128;SHT30;54931;52.098;21.006;2023-07-24T04:43:21;21.12;57.05
68128;SHT30;54931;52.098;21.006;2023-07-24T04:45:48;21.17;56.76
68128;SHT30;54931;52.098;21.006;2023-07-24T04:48:16;21.23;56.64
68128;SHT30;54931;52.098;21.006;2023-07-24T04:50:43;21.29;56.73
68128;SHT30;54931;52.098;21.006;2023-07-24T04:53:12;21.38;56.60
68128;SHT30;54931;52.098;21.006;2023-07-24T04:55:39;21.52;57.13
68128;SHT30;54931;52.098;21.006;2023-07-24T04:58:07;21.76;57.20
68128;SHT30;54931;52.098;21.006;2023-07-24T05:00:34;22.11;56.70
68128;SHT30;54931;52.098;21.006;2023-07-24T05:03:02;22.29;56.66
68128;SHT30;54931;52.098;21.006;2023-07-24T05:05:30;22.42;56.28
68128;SHT30;54931;52.098;21.006;2023-07-24T05:07:58;22.50;56.20
68128;SHT30;54931;52.098;21.006;2023-07-24T05:10:26;22.57;55.79
68128;SHT30;54931;52.098;21.006;2023-07-24T05:12:53;22.63;55.89
68128;SHT30;54931;52.098;21.006;2023-07-24T05:15:23;22.64;56.04
68128;SHT30;54931;52.098;21.006;2023-07-24T05:17:50;22.67;55.96
68128;SHT30;54931;52.098;21.006;2023-07-24T05:20:18;22.67;55.81
68128;SHT30;54931;52.098;21.006;2023-07-24T05:22:46;22.64;55.57
68128;SHT30;54931;52.098;21.006;2023-07-24T05:25:13;22.61;55.14
68128;SHT30;54931;52.098;21.006;2023-07-24T05:27:41;22.62;54.93
68128;SHT30;54931;52.098;21.006;2023-07-24T05:30:09;22.63;55.04
68128;SHT30;54931;52.098;21.006;2023-07-24T05:32:36;22.65;54.61
68128;SHT30;54931;52.098;21.006;2023-07-24T05:35:04;22.66;54.86
68128;SHT30;54931;52.098;21.006;2023-07-24T05:37:32;22.65;54.74
68128;SHT30;54931;52.098;21.006;2023-07-24T05:39:59;22.64;53.98
68128;SHT30;54931;52.098;21.006;2023-07-24T05:42:27;22.64;53.92
68128;SHT30;54931;52.098;21.006;2023-07-24T05:44:54;22.64;53.78
68128;SHT30;54931;52.098;21.006;2023-07-24T05:47:22;22.67;53.70
68128;SHT30;54931;52.098;21.006;2023-07-24T05:49:49;22.68;53.40
68128;SHT30;54931;52.098;21.006;2023-07-24T05:52:17;22.73;53.36
68128;SHT30;54931;52.098;21.006;2023-07-24T05:54:44;22.79;53.05
68128;SHT30;54931;52.098;21.006;2023-07-24T05:57:12;22.86;52.95
68128;SHT30;54931;52.098;21.006;2023-07-24T05:59:39;22.93;52.53
68128;SHT30;54931;52.098;21.006;2023-07-24T06:02:07;22.97;52.35
68128;SHT30;54931;52.098;21.006;2023-07-24T06:04:35;23.01;52.15
68128;SHT30;54931;52.098;21.006;2023-07-24T06:07:03;23.06;52.58
68128;SHT30;54931;52.098;21.006;2023-07-24T06:09:31;23.12;51.96
68128;SHT30;54931;52.098;21.006;2023-07-24T06:11:58;23.17;51.81
68128;SHT30;54931;52.098;21.006;2023-07-24T06:14:26;23.19;51.54
68128;SHT30;54931;52.098;21.006;2023-07-24T06:16:53;23.17;51.36
68128;SHT30;54931;52.098;21.006;2023-07-24T06:19:20;23.12;50.86
68128;SHT30;54931;52.098;21.006;2023-07-24T06:21:48;23.06;51.20
68128;SHT30;54931;52.098;21.006;2023-07-24T06:24:16;23.03;51.56
68128;SHT30;54931;52.098;21.006;2023-07-24T06:26:43;23.02;51.55
68128;SHT30;54931;52.098;21.006;2023-07-24T06:29:11;23.04;51.39
68128;SHT30;54931;52.098;21.006;2023-07-24T06:31:38;23.08;51.45
68128;SHT30;54931;52.098;21.006;2023-07-24T06:34:06;23.13;51.36
68128;SHT30;54931;52.098;21.006;2023-07-24T06:36:33;23.22;51.11
68128;SHT30;54931;52.098;21.006;2023-07-24T06:39:01;23.31;51.34
68128;SHT30;54931;52.098;21.006;2023-07-24T06:41:29;23.43;50.73
68128;SHT30;54931;52.098;21.006;2023-07-24T06:43:56;23.57;50.07
68128;SHT30;54931;52.098;21.006;2023-07-24T06:46:24;23.70;49.47
68128;SHT30;54931;52.098;21.006;2023-07-24T06:48:51;23.73;49.14
68128;SHT30;54931;52.098;21.006;2023-07-24T06:51:19;23.77;49.34
68128;SHT30;54931;52.098;21.006;2023-07-24T06:53:47;23.81;49.15
68128;SHT30;54931;52.098;21.006;2023-07-24T06:56:14;23.81;48.65
68128;SHT30;54931;52.098;21.006;2023-07-24T06:58:42;23.77;48.79
68128;SHT30;54931;52.098;21.006;2023-07-24T07:01:09;23.77;49.21
68128;SHT30;54931;52.098;21.006;2023-07-24T07:03:37;23.84;49.54
68128;SHT30;54931;52.098;21.006;2023-07-24T07:06:04;23.88;49.08
68128;SHT30;54931;52.098;21.006;2023-07-24T07:08:33;23.89;49.16
68128;SHT30;54931;52.098;21.006;2023-07-24T07:11:00;23.93;49.41
68128;SHT30;54931;52.098;21.006;2023-07-24T07:13:28;24.05;49.22
68128;SHT30;54931;52.098;21.006;2023-07-24T07:15:56;24.18;48.20
68128;SHT30;54931;52.098;21.006;2023-07-24T07:18:23;24.32;47.97
68128;SHT30;54931;52.098;21.006;2023-07-24T07:20:51;24.56;48.42
68128;SHT30;54931;52.098;21.006;2023-07-24T07:23:21;24.86;48.55
68128;SHT30;54931;52.098;21.006;2023-07-24T07:25:50;25.09;47.73
68128;SHT30;54931;52.098;21.006;2023-07-24T07:28:18;25.18;46.83
68128;SHT30;54931;52.098;21.006;2023-07-24T07:30:46;25.19;46.57
68128;SHT30;54931;52.098;21.006;2023-07-24T07:33:14;25.16;46.02
68128;SHT30;54931;52.098;21.006;2023-07-24T07:35:41;25.11;45.98
68128;SHT30;54931;52.098;21.006;2023-07-24T07:38:08;25.14;45.54
68128;SHT30;54931;52.098;21.006;2023-07-24T07:40:37;25.46;46.26
68128;SHT30;54931;52.098;21.006;2023-07-24T07:43:06;25.98;45.70
68128;SHT30;54931;52.098;21.006;2023-07-24T07:45:33;26.26;43.74
68128;SHT30;54931;52.098;21.006;2023-07-24T07:48:01;26.23;44.19
68128;SHT30;54931;52.098;21.006;2023-07-24T07:50:29;26.42;44.73
68128;SHT30;54931;52.098;21.006;2023-07-24T07:52:57;26.65;44.74
68128;SHT30;54931;52.098;21.006;2023-07-24T07:55:24;26.79;44.47
68128;SHT30;54931;52.098;21.006;2023-07-24T07:57:52;26.92;44.44
68128;SHT30;54931;52.098;21.006;2023-07-24T08:00:20;27.08;43.79
68128;SHT30;54931;52.098;21.006;2023-07-24T08:02:48;27.27;43.52
68128;SHT30;54931;52.098;21.006;2023-07-24T08:05:15;27.60;43.27
68128;SHT30;54931;52.098;21.006;2023-07-24T08:07:43;27.91;42.30
68128;SHT30;54931;52.098;21.006;2023-07-24T08:10:11;28.09;41.75
68128;SHT30;54931;52.098;21.006;2023-07-24T08:12:42;28.35;41.83
68128;SHT30;54931;52.098;21.006;2023-07-24T08:15:10;28.57;41.53
68128;SHT30;54931;52.098;21.006;2023-07-24T08:17:38;28.78;41.11
68128;SHT30;54931;52.098;21.006;2023-07-24T08:20:06;29.08;40.84
68128;SHT30;54931;52.098;21.006;2023-07-24T08:22:35;29.40;40.15
68128;SHT30;54931;52.098;21.006;2023-07-24T08:25:02;29.67;39.32
68128;SHT30;54931;52.098;21.006;2023-07-24T08:27:31;29.79;37.86
68128;SHT30;54931;52.098;21.006;2023-07-24T08:29:59;29.83;38.11
68128;SHT30;54931;52.098;21.006;2023-07-24T08:32:28;30.01;38.41
68128;SHT30;54931;52.098;21.006;2023-07-24T08:34:55;30.34;38.19
68128;SHT30;54931;52.098;21.006;2023-07-24T08:37:24;30.56;36.80
68128;SHT30;54931;52.098;21.006;2023-07-24T08:39:52;30.55;37.16
68128;SHT30;54931;52.098;21.006;2023-07-24T08:42:19;30.59;36.96
68128;SHT30;54931;52.098;21.006;2023-07-24T08:44:49;30.65;36.91
68128;SHT30;54931;52.098;21.006;2023-07-24T08:47:19;30.72;36.86
68128;SHT30;54931;52.098;21.006;2023-07-24T08:49:49;30.83;36.51
68128;SHT30;54931;52.098;21.006;2023-07-24T08:52:19;30.99;36.53
68128;SHT30;54931;52.098;21.006;2023-07-24T08:54:47;31.21;35.70
68128;SHT30;54931;52.098;21.006;2023-07-24T08:57:17;31.17;35.67
68128;SHT30;54931;52.098;21.006;2023-07-24T08:59:45;31.20;35.37
68128;SHT30;54931;52.098;21.006;2023-07-24T09:02:13;31.12;35.60
68128;SHT30;54931;52.098;21.006;2023-07-24T09:04:41;30.94;35.66
68128;SHT30;54931;52.098;21.006;2023-07-24T09:07:09;30.80;36.02
68128;SHT30;54931;52.098;21.006;2023-07-24T09:09:39;30.77;36.23
68128;SHT30;54931;52.098;21.006;2023-07-24T09:12:12;30.92;36.40
68128;SHT30;54931;52.098;21.006;2023-07-24T09:14:43;31.12;35.62
68128;SHT30;54931;52.098;21.006;2023-07-24T09:17:12;31.32;35.75
68128;SHT30;54931;52.098;21.006;2023-07-24T09:19:41;31.50;35.12
68128;SHT30;54931;52.098;21.006;2023-07-24T09:22:14;31.60;35.46
68128;SHT30;54931;52.098;21.006;2023-07-24T09:27:20;31.38;34.69
68128;SHT30;54931;52.098;21.006;2023-07-24T09:29:51;31.14;34.96
68128;SHT30;54931;52.098;21.006;2023-07-24T09:32:23;31.11;35.74
68128;SHT30;54931;52.098;21.006;2023-07-24T09:34:54;31.02;34.98
68128;SHT30;54931;52.098;21.006;2023-07-24T09:37:30;30.77;35.02
68128;SHT30;54931;52.098;21.006;2023-07-24T09:40:04;30.52;35.74
68128;SHT30;54931;52.098;21.006;2023-07-24T09:42:32;30.41;36.30
68128;SHT30;54931;52.098;21.006;2023-07-24T09:45:02;30.42;36.72
68128;SHT30;54931;52.098;21.006;2023-07-24T09:47:32;30.45;37.07
68128;SHT30;54931;52.098;21.006;2023-07-24T09:49:59;30.45;36.85
68128;SHT30;54931;52.098;21.006;2023-07-24T09:52:31;30.36;36.80
68128;SHT30;54931;52.098;21.006;2023-07-24T09:57:26;30.23;37.30
68128;SHT30;54931;52.098;21.006;2023-07-24T09:59:57;30.30;37.47
68128;SHT30;54931;52.098;21.006;2023-07-24T10:02:25;30.43;37.14
68128;SHT30;54931;52.098;21.006;2023-07-24T10:04:55;30.53;37.34
68128;SHT30;54931;52.098;21.006;2023-07-24T10:07:23;30.64;37.28
68128;SHT30;54931;52.098;21.006;2023-07-24T10:09:51;30.73;37.34
68128;SHT30;54931;52.098;21.006;2023-07-24T10:12:22;30.77;36.59
68128;SHT30;54931;52.098;21.006;2023-07-24T10:14:55;30.80;35.99
68128;SHT30;54931;52.098;21.006;2023-07-24T10:17:39;30.67;36.20
68128;SHT30;54931;52.098;21.006;2023-07-24T10:20:11;31.03;36.88
68128;SHT30;54931;52.098;21.006;2023-07-24T10:22:40;31.56;35.54
68128;SHT30;54931;52.098;21.006;2023-07-24T10:25:10;31.83;34.08
68128;SHT30;54931;52.098;21.006;2023-07-24T10:27:41;31.92;34.08
68128;SHT30;54931;52.098;21.006;2023-07-24T10:30:11;31.92;34.31
68128;SHT30;54931;52.098;21.006;2023-07-24T10:32:45;31.89;34.49
68128;SHT30;54931;52.098;21.006;2023-07-24T10:35:20;31.95;34.17
68128;SHT30;54931;52.098;21.006;2023-07-24T10:37:49;32.10;34.03
68128;SHT30;54931;52.098;21.006;2023-07-24T10:40:27;32.24;33.59
68128;SHT30;54931;52.098;21.006;2023-07-24T10:43:04;32.23;33.33
68128;SHT30;54931;52.098;21.006;2023-07-24T10:48:18;32.22;33.09
68128;SHT30;54931;52.098;21.006;2023-07-24T10:50:49;32.08;32.81
68128;SHT30;54931;52.098;21.006;2023-07-24T10:53:19;32.08;33.29
68128;SHT30;54931;52.098;21.006;2023-07-24T10:55:49;32.15;33.44
68128;SHT30;54931;52.098;21.006;2023-07-24T10:58:18;32.21;32.87
68128;SHT30;54931;52.098;21.006;2023-07-24T11:00:46;32.14;32.50
68128;SHT30;54931;52.098;21.006;2023-07-24T11:03:14;32.00;32.50
68128;SHT30;54931;52.098;21.006;2023-07-24T11:05:42;31.70;32.47
68128;SHT30;54931;52.098;21.006;2023-07-24T11:08:12;31.62;33.49
68128;SHT30;54931;52.098;21.006;2023-07-24T11:10:47;31.85;33.67
68128;SHT30;54931;52.098;21.006;2023-07-24T11:13:20;32.16;33.33
68128;SHT30;54931;52.098;21.006;2023-07-24T11:15:51;32.35;33.60
68128;SHT30;54931;52.098;21.006;2023-07-24T11:18:20;32.54;33.44
68128;SHT30;54931;52.098;21.006;2023-07-24T11:20:50;32.57;32.84
68128;SHT30;54931;52.098;21.006;2023-07-24T11:23:19;32.34;33.21
68128;SHT30;54931;52.098;21.006;2023-07-24T11:25:49;32.06;33.54
68128;SHT30;54931;52.098;21.006;2023-07-24T11:28:21;31.75;33.87
68128;SHT30;54931;52.098;21.006;2023-07-24T11:30:48;31.42;34.20
68128;SHT30;54931;52.098;21.006;2023-07-24T11:33:16;31.19;34.42
68128;SHT30;54931;52.098;21.006;2023-07-24T11:35:44;31.03;34.53
68128;SHT30;54931;52.098;21.006;2023-07-24T11:38:13;31.14;35.23
68128;SHT30;54931;52.098;21.006;2023-07-24T11:40:43;31.38;34.98
68128;SHT30;54931;52.098;21.006;2023-07-24T11:43:18;31.60;34.85
68128;SHT30;54931;52.098;21.006;2023-07-24T11:45:51;31.69;34.33
68128;SHT30;54931;52.098;21.006;2023-07-24T11:48:21;31.82;34.31
68128;SHT30;54931;52.098;21.006;2023-07-24T11:50:51;31.89;33.76
68128;SHT30;54931;52.098;21.006;2023-07-24T11:53:22;31.91;33.54
68128;SHT30;54931;52.098;21.006;2023-07-24T11:55:58;31.78;34.01
68128;SHT30;54931;52.098;21.006;2023-07-24T11:58:29;31.80;33.77
68128;SHT30;54931;52.098;21.006;2023-07-24T12:00:57;31.68;33.73
68128;SHT30;54931;52.098;21.006;2023-07-24T12:03:25;31.60;34.42
68128;SHT30;54931;52.098;21.006;2023-07-24T12:05:53;31.50;33.98
68128;SHT30;54931;52.098;21.006;2023-07-24T12:08:30;31.37;34.51
68128;SHT30;54931;52.098;21.006;2023-07-24T12:11:02;31.43;34.64
68128;SHT30;54931;52.098;21.006;2023-07-24T12:13:29;31.46;33.95
68128;SHT30;54931;52.098;21.006;2023-07-24T12:15:58;31.59;34.37
68128;SHT30;54931;52.098;21.006;2023-07-24T12:18:26;31.89;33.71
68128;SHT30;54931;52.098;21.006;2023-07-24T12:20:53;32.03;33.54
68128;SHT30;54931;52.098;21.006;2023-07-24T12:23:20;32.22;33.36
68128;SHT30;54931;52.098;21.006;2023-07-24T12:25:48;32.38;33.18
68128;SHT30;54931;52.098;21.006;2023-07-24T12:28:16;32.34;32.84
68128;SHT30;54931;52.098;21.006;2023-07-24T12:30:43;32.28;33.14
68128;SHT30;54931;52.098;21.006;2023-07-24T12:33:11;32.36;33.22
68128;SHT30;54931;52.098;21.006;2023-07-24T12:35:38;32.41;32.94
68128;SHT30;54931;52.098;21.006;2023-07-24T12:38:05;32.40;32.63
68128;SHT30;54931;52.098;21.006;2023-07-24T12:40:33;32.25;32.62
68128;SHT30;54931;52.098;21.006;2023-07-24T12:43:00;32.19;32.90
68128;SHT30;54931;52.098;21.006;2023-07-24T12:45:28;32.27;32.93
68128;SHT30;54931;52.098;21.006;2023-07-24T12:47:55;32.30;32.87
68128;SHT30;54931;52.098;21.006;2023-07-24T12:50:23;32.35;32.99
68128;SHT30;54931;52.098;21.006;2023-07-24T12:52:51;32.33;32.82
68128;SHT30;54931;52.098;21.006;2023-07-24T12:55:19;32.30;33.22
68128;SHT30;54931;52.098;21.006;2023-07-24T12:57:46;32.29;32.88
68128;SHT30;54931;52.098;21.006;2023-07-24T13:00:13;32.26;32.99
68128;SHT30;54931;52.098;21.006;2023-07-24T13:02:41;32.21;32.87
68128;SHT30;54931;52.098;21.006;2023-07-24T13:05:09;32.17;33.50
68128;SHT30;54931;52.098;21.006;2023-07-24T13:07:37;32.31;33.60
68128;SHT30;54931;52.098;21.006;2023-07-24T13:10:04;32.49;33.52
68128;SHT30;54931;52.098;21.006;2023-07-24T13:12:33;32.69;33.19
68128;SHT30;54931;52.098;21.006;2023-07-24T13:15:00;32.92;33.13
68128;SHT30;54931;52.098;21.006;2023-07-24T13:17:27;33.12;32.18
68128;SHT30;54931;52.098;21.006;2023-07-24T13:19:56;33.14;31.84
68128;SHT30;54931;52.098;21.006;2023-07-24T13:22:23;33.07;31.26
68128;SHT30;54931;52.098;21.006;2023-07-24T13:24:55;32.96;31.97
68128;SHT30;54931;52.098;21.006;2023-07-24T13:27:22;33.04;32.04
68128;SHT30;54931;52.098;21.006;2023-07-24T13:29:50;33.18;31.47
68128;SHT30;54931;52.098;21.006;2023-07-24T13:32:17;33.12;31.18
68128;SHT30;54931;52.098;21.006;2023-07-24T13:34:45;32.97;31.69
68128;SHT30;54931;52.098;21.006;2023-07-24T13:37:14;32.74;31.12
68128;SHT30;54931;52.098;21.006;2023-07-24T13:39:42;32.56;31.60
68128;SHT30;54931;52.098;21.006;2023-07-24T13:42:09;32.51;32.01
68128;SHT30;54931;52.098;21.006;2023-07-24T13:44:38;32.61;32.28
68128;SHT30;54931;52.098;21.006;2023-07-24T13:47:07;32.84;32.68
68128;SHT30;54931;52.098;21.006;2023-07-24T13:49:34;32.91;31.77
68128;SHT30;54931;52.098;21.006;2023-07-24T13:52:02;32.91;31.92
68128;SHT30;54931;52.098;21.006;2023-07-24T13:54:30;32.92;31.41
68128;SHT30;54931;52.098;21.006;2023-07-24T13:56:58;32.98;30.98
68128;SHT30;54931;52.098;21.006;2023-07-24T13:59:25;33.16;30.56
68128;SHT30;54931;52.098;21.006;2023-07-24T14:01:53;33.30;30.15
68128;SHT30;54931;52.098;21.006;2023-07-24T14:04:20;33.27;29.87
68128;SHT30;54931;52.098;21.006;2023-07-24T14:06:48;33.04;29.27
68128;SHT30;54931;52.098;21.006;2023-07-24T14:09:15;32.78;29.87
68128;SHT30;54931;52.098;21.006;2023-07-24T14:11:43;32.63;30.10
68128;SHT30;54931;52.098;21.006;2023-07-24T14:14:10;32.49;30.64
68128;SHT30;54931;52.098;21.006;2023-07-24T14:16:38;32.39;30.81
68128;SHT30;54931;52.098;21.006;2023-07-24T14:19:05;32.26;30.87
68128;SHT30;54931;52.098;21.006;2023-07-24T14:21:32;32.16;30.93
68128;SHT30;54931;52.098;21.006;2023-07-24T14:23:59;32.07;30.98
68128;SHT30;54931;52.098;21.006;2023-07-24T14:26:27;32.00;31.47
68128;SHT30;54931;52.098;21.006;2023-07-24T14:28:55;31.94;32.00
68128;SHT30;54931;52.098;21.006;2023-07-24T14:31:23;31.87;31.31
68128;SHT30;54931;52.098;21.006;2023-07-24T14:33:51;31.84;31.73
68128;SHT30;54931;52.098;21.006;2023-07-24T14:36:18;31.95;31.61
68128;SHT30;54931;52.098;21.006;2023-07-24T14:38:46;32.10;31.70
68128;SHT30;54931;52.098;21.006;2023-07-24T14:41:14;32.31;31.41
68128;SHT30;54931;52.098;21.006;2023-07-24T14:43:42;32.45;30.99
68128;SHT30;54931;52.098;21.006;2023-07-24T14:46:10;32.52;30.84
68128;SHT30;54931;52.098;21.006;2023-07-24T14:48:37;32.51;30.41
68128;SHT30;54931;52.098;21.006;2023-07-24T14:51:04;32.50;31.16
68128;SHT30;54931;52.098;21.006;2023-07-24T14:53:32;32.62;30.80
68128;SHT30;54931;52.098;21.006;2023-07-24T14:55:59;32.76;30.72
68128;SHT30;54931;52.098;21.006;2023-07-24T14:58:27;32.93;30.87
68128;SHT30;54931;52.098;21.006;2023-07-24T15:00:54;32.99;30.47
68128;SHT30;54931;52.098;21.006;2023-07-24T15:03:22;32.86;29.47
68128;SHT30;54931;52.098;21.006;2023-07-24T15:05:49;32.71;29.54
68128;SHT30;54931;52.098;21.006;2023-07-24T15:08:17;32.51;29.21
68128;SHT30;54931;52.098;21.006;2023-07-24T15:10:44;32.21;29.53
68128;SHT30;54931;52.098;21.006;2023-07-24T15:13:12;32.05;30.21
68128;SHT30;54931;52.098;21.006;2023-07-24T15:15:39;31.93;30.19
68128;SHT30;54931;52.098;21.006;2023-07-24T15:18:07;31.80;30.59
68128;SHT30;54931;52.098;21.006;2023-07-24T15:20:35;31.70;30.45
68128;SHT30;54931;52.098;21.006;2023-07-24T15:23:02;31.61;30.67
68128;SHT30;54931;52.098;21.006;2023-07-24T15:25:29;31.55;30.87
68128;SHT30;54931;52.098;21.006;2023-07-24T15:27:57;31.53;30.77
68128;SHT30;54931;52.098;21.006;2023-07-24T15:30:24;31.48;30.27
68128;SHT30;54931;52.098;21.006;2023-07-24T15:32:53;31.47;30.87